sensor_id;sensor_type;location;lat;lon;timestamp;P1;P2;P0
69123;PMS5003;56232;53.384;-2.732;2023-05-10T00:02:00;11;10;
69123;PMS5003;56232;53.384;-2.732;2023-05-10T00:04:26;15;11;
69123;PMS5003;56232;53.384;-2.732;2023-05-10T00:06:51;13;13;
69123;PMS5003;56232;53.384;-2.732;2023-05-10T00:09:17;13;11;
69123;PMS5003;56232;53.384;-2.732;2023-05-10T00:11:43;9;8;
69123;PMS5003;56232;53.384;-2.732;2023-05-10T00:14:08;11;10;
69123;PMS5003;56232;53.384;-2.732;2023-05-10T00:16:34;13;10;
69123;PMS5003;56232;53.384;-2.732;2023-05-10T00:18:59;17;13;
69123;PMS5003;56232;53.384;-2.732;2023-05-10T00:21:24;11;10;
69123;PMS5003;56232;53.384;-2.732;2023-05-10T00:23:50;16;11;
69123;PMS5003;56232;53.384;-2.732;2023-05-10T00:26:16;16;11;
69123;PMS5003;56232;53.384;-2.732;2023-05-10T00:28:41;11;11;
69123;PMS5003;56232;53.384;-2.732;2023-05-10T00:31:07;11;10;
69123;PMS5003;56232;53.384;-2.732;2023-05-10T00:33:32;16;13;
69123;PMS5003;56232;53.384;-2.732;2023-05-10T00:35:58;10;10;
69123;PMS5003;56232;53.384;-2.732;2023-05-10T00:38:24;14;11;
69123;PMS5003;56232;53.384;-2.732;2023-05-10T00:40:49;10;10;
69123;PMS5003;56232;53.384;-2.732;2023-05-10T00:43:16;15;14;
69123;PMS5003;56232;53.384;-2.732;2023-05-10T00:45:41;16;14;
69123;PMS5003;56232;53.384;-2.732;2023-05-10T00:48:06;13;13;
69123;PMS5003;56232;53.384;-2.732;2023-05-10T00:50:32;11;9;
69123;PMS5003;56232;53.384;-2.732;2023-05-10T00:52:58;17;15;
69123;PMS5003;56232;53.384;-2.732;2023-05-10T00:55:23;14;12;
69123;PMS5003;56232;53.384;-2.732;2023-05-10T00:57:49;10;10;
69123;PMS5003;56232;53.384;-2.732;2023-05-10T01:00:14;9;8;
69123;PMS5003;56232;53.384;-2.732;2023-05-10T01:02:39;11;11;
69123;PMS5003;56232;53.384;-2.732;2023-05-10T01:05:05;13;10;
69123;PMS5003;56232;53.384;-2.732;2023-05-10T01:07:30;12;11;
69123;PMS5003;56232;53.384;-2.732;2023-05-10T01:09:55;19;14;
69123;PMS5003;56232;53.384;-2.732;2023-05-10T01:12:20;13;12;
69123;PMS5003;56232;53.384;-2.732;2023-05-10T01:14:46;13;13;
69123;PMS5003;56232;53.384;-2.732;2023-05-10T01:17:12;13;12;
69123;PMS5003;56232;53.384;-2.732;2023-05-10T01:19:37;12;10;
69123;PMS5003;56232;53.384;-2.732;2023-05-10T01:22:05;11;11;
69123;PMS5003;56232;53.384;-2.732;2023-05-10T01:34:12;15;11;
69123;PMS5003;56232;53.384;-2.732;2023-05-10T01:36:38;15;13;
69123;PMS5003;56232;53.384;-2.732;2023-05-10T01:39:03;13;13;
69123;PMS5003;56232;53.384;-2.732;2023-05-10T01:41:28;12;11;
69123;PMS5003;56232;53.384;-2.732;2023-05-10T01:43:55;12;12;
69123;PMS5003;56232;53.384;-2.732;2023-05-10T01:46:20;15;12;
69123;PMS5003;56232;53.384;-2.732;2023-05-10T01:48:47;15;13;
69123;PMS5003;56232;53.384;-2.732;2023-05-10T01:51:09;12;12;
69123;PMS5003;56232;53.384;-2.732;2023-05-10T01:53:35;13;12;
69123;PMS5003;56232;53.384;-2.732;2023-05-10T01:56:01;14;13;
69123;PMS5003;56232;53.384;-2.732;2023-05-10T01:58:28;13;12;
69123;PMS5003;56232;53.384;-2.732;2023-05-10T02:00:52;11;11;
69123;PMS5003;56232;53.384;-2.732;2023-05-10T02:03:18;11;11;
69123;PMS5003;56232;53.384;-2.732;2023-05-10T02:05:43;11;11;
69123;PMS5003;56232;53.384;-2.732;2023-05-10T02:08:09;13;10;
69123;PMS5003;56232;53.384;-2.732;2023-05-10T02:10:35;15;10;
69123;PMS5003;56232;53.384;-2.732;2023-05-10T02:13:00;13;12;
69123;PMS5003;56232;53.384;-2.732;2023-05-10T02:15:26;14;12;
69123;PMS5003;56232;53.384;-2.732;2023-05-10T02:17:50;14;11;
69123;PMS5003;56232;53.384;-2.732;2023-05-10T02:20:17;11;9;
69123;PMS5003;56232;53.384;-2.732;2023-05-10T02:22:42;13;12;
69123;PMS5003;56232;53.384;-2.732;2023-05-10T02:25:08;12;11;
69123;PMS5003;56232;53.384;-2.732;2023-05-10T02:27:33;11;10;
69123;PMS5003;56232;53.384;-2.732;2023-05-10T02:29:59;12;10;
69123;PMS5003;56232;53.384;-2.732;2023-05-10T02:32:25;13;12;
69123;PMS5003;56232;53.384;-2.732;2023-05-10T02:34:50;12;9;
69123;PMS5003;56232;53.384;-2.732;2023-05-10T02:37:16;16;11;
69123;PMS5003;56232;53.384;-2.732;2023-05-10T02:39:41;15;12;
69123;PMS5003;56232;53.384;-2.732;2023-05-10T02:42:06;10;10;
69123;PMS5003;56232;53.384;-2.732;2023-05-10T02:44:32;10;10;
69123;PMS5003;56232;53.384;-2.732;2023-05-10T02:46:57;12;11;
69123;PMS5003;56232;53.384;-2.732;2023-05-10T02:49:23;9;9;
69123;PMS5003;56232;53.384;-2.732;2023-05-10T02:51:51;11;9;
69123;PMS5003;56232;53.384;-2.732;2023-05-10T02:54:15;10;10;
69123;PMS5003;56232;53.384;-2.732;2023-05-10T02:56:40;14;11;
69123;PMS5003;56232;53.384;-2.732;2023-05-10T02:59:05;12;11;
69123;PMS5003;56232;53.384;-2.732;2023-05-10T03:01:31;11;10;
69123;PMS5003;56232;53.384;-2.732;2023-05-10T03:03:57;11;10;
69123;PMS5003;56232;53.384;-2.732;2023-05-10T03:06:22;12;10;
69123;PMS5003;56232;53.384;-2.732;2023-05-10T03:08:48;9;9;
69123;PMS5003;56232;53.384;-2.732;2023-05-10T03:11:20;10;9;
69123;PMS5003;56232;53.384;-2.732;2023-05-10T03:13:42;12;11;
69123;PMS5003;56232;53.384;-2.732;2023-05-10T03:16:07;8;8;
69123;PMS5003;56232;53.384;-2.732;2023-05-10T03:18:33;17;13;
69123;PMS5003;56232;53.384;-2.732;2023-05-10T03:20:57;11;11;
69123;PMS5003;56232;53.384;-2.732;2023-05-10T03:23:25;13;13;
69123;PMS5003;56232;53.384;-2.732;2023-05-10T03:25:48;13;13;
69123;PMS5003;56232;53.384;-2.732;2023-05-10T03:28:14;12;11;
69123;PMS5003;56232;53.384;-2.732;2023-05-10T03:30:39;10;9;
69123;PMS5003;56232;53.384;-2.732;2023-05-10T03:33:05;12;10;
69123;PMS5003;56232;53.384;-2.732;2023-05-10T03:35:31;12;11;
69123;PMS5003;56232;53.384;-2.732;2023-05-10T03:37:56;13;11;
69123;PMS5003;56232;53.384;-2.732;2023-05-10T03:40:22;13;10;
69123;PMS5003;56232;53.384;-2.732;2023-05-10T03:42:48;12;11;
69123;PMS5003;56232;53.384;-2.732;2023-05-10T03:45:14;11;11;
69123;PMS5003;56232;53.384;-2.732;2023-05-10T03:47:39;11;10;
69123;PMS5003;56232;53.384;-2.732;2023-05-10T03:50:05;12;11;
69123;PMS5003;56232;53.384;-2.732;2023-05-10T03:52:30;11;11;
69123;PMS5003;56232;53.384;-2.732;2023-05-10T03:54:56;12;12;
69123;PMS5003;56232;53.384;-2.732;2023-05-10T03:57:22;13;13;
69123;PMS5003;56232;53.384;-2.732;2023-05-10T03:59:47;12;11;
69123;PMS5003;56232;53.384;-2.732;2023-05-10T04:02:13;10;10;
69123;PMS5003;56232;53.384;-2.732;2023-05-10T04:04:39;11;10;
69123;PMS5003;56232;53.384;-2.732;2023-05-10T04:07:04;9;9;
69123;PMS5003;56232;53.384;-2.732;2023-05-10T04:09:30;10;9;
69123;PMS5003;56232;53.384;-2.732;2023-05-10T04:11:55;11;11;
69123;PMS5003;56232;53.384;-2.732;2023-05-10T04:14:21;11;10;
69123;PMS5003;56232;53.384;-2.732;2023-05-10T04:16:47;10;10;
69123;PMS5003;56232;53.384;-2.732;2023-05-10T04:19:12;10;10;
69123;PMS5003;56232;53.384;-2.732;2023-05-10T04:21:38;10;10;
69123;PMS5003;56232;53.384;-2.732;2023-05-10T04:24:04;13;11;
69123;PMS5003;56232;53.384;-2.732;2023-05-10T04:26:29;13;13;
69123;PMS5003;56232;53.384;-2.732;2023-05-10T04:28:54;12;11;
69123;PMS5003;56232;53.384;-2.732;2023-05-10T04:31:20;10;10;
69123;PMS5003;56232;53.384;-2.732;2023-05-10T04:33:45;13;13;
69123;PMS5003;56232;53.384;-2.732;2023-05-10T04:36:11;10;10;
69123;PMS5003;56232;53.384;-2.732;2023-05-10T04:38:37;14;14;
69123;PMS5003;56232;53.384;-2.732;2023-05-10T04:41:03;12;11;
69123;PMS5003;56232;53.384;-2.732;2023-05-10T04:43:28;22;20;
69123;PMS5003;56232;53.384;-2.732;2023-05-10T04:45:55;21;21;
69123;PMS5003;56232;53.384;-2.732;2023-05-10T04:48:19;20;19;
69123;PMS5003;56232;53.384;-2.732;2023-05-10T04:50:44;16;15;
69123;PMS5003;56232;53.384;-2.732;2023-05-10T04:53:09;25;24;
69123;PMS5003;56232;53.384;-2.732;2023-05-10T04:55:35;26;25;
69123;PMS5003;56232;53.384;-2.732;2023-05-10T04:58:00;29;29;
69123;PMS5003;56232;53.384;-2.732;2023-05-10T05:00:26;36;34;
69123;PMS5003;56232;53.384;-2.732;2023-05-10T05:02:51;47;43;
69123;PMS5003;56232;53.384;-2.732;2023-05-10T05:05:22;42;42;
69123;PMS5003;56232;53.384;-2.732;2023-05-10T05:07:48;53;47;
69123;PMS5003;56232;53.384;-2.732;2023-05-10T05:10:08;44;40;
69123;PMS5003;56232;53.384;-2.732;2023-05-10T05:12:34;44;39;
69123;PMS5003;56232;53.384;-2.732;2023-05-10T05:14:59;44;42;
69123;PMS5003;56232;53.384;-2.732;2023-05-10T05:17:25;43;40;
69123;PMS5003;56232;53.384;-2.732;2023-05-10T05:19:50;46;44;
69123;PMS5003;56232;53.384;-2.732;2023-05-10T05:22:16;39;38;
69123;PMS5003;56232;53.384;-2.732;2023-05-10T05:24:41;40;37;
69123;PMS5003;56232;53.384;-2.732;2023-05-10T05:27:06;42;38;
69123;PMS5003;56232;53.384;-2.732;2023-05-10T05:29:32;31;30;
69123;PMS5003;56232;53.384;-2.732;2023-05-10T05:31:57;42;33;
69123;PMS5003;56232;53.384;-2.732;2023-05-10T05:34:22;37;34;
69123;PMS5003;56232;53.384;-2.732;2023-05-10T05:36:48;31;31;
69123;PMS5003;56232;53.384;-2.732;2023-05-10T05:39:14;30;30;
69123;PMS5003;56232;53.384;-2.732;2023-05-10T05:41:39;38;34;
69123;PMS5003;56232;53.384;-2.732;2023-05-10T05:44:04;36;32;
69123;PMS5003;56232;53.384;-2.732;2023-05-10T05:46:30;29;27;
69123;PMS5003;56232;53.384;-2.732;2023-05-10T05:48:56;28;28;
69123;PMS5003;56232;53.384;-2.732;2023-05-10T05:51:21;32;28;
69123;PMS5003;56232;53.384;-2.732;2023-05-10T05:53:47;28;25;
69123;PMS5003;56232;53.384;-2.732;2023-05-10T05:56:12;20;20;
69123;PMS5003;56232;53.384;-2.732;2023-05-10T05:58:37;22;22;
69123;PMS5003;56232;53.384;-2.732;2023-05-10T06:01:03;19;18;
69123;PMS5003;56232;53.384;-2.732;2023-05-10T06:03:28;13;13;
69123;PMS5003;56232;53.384;-2.732;2023-05-10T06:05:53;19;17;
69123;PMS5003;56232;53.384;-2.732;2023-05-10T06:08:18;19;18;
69123;PMS5003;56232;53.384;-2.732;2023-05-10T06:10:43;22;17;
69123;PMS5003;56232;53.384;-2.732;2023-05-10T06:13:09;19;18;
69123;PMS5003;56232;53.384;-2.732;2023-05-10T06:15:34;15;14;
69123;PMS5003;56232;53.384;-2.732;2023-05-10T06:18:00;17;16;
69123;PMS5003;56232;53.384;-2.732;2023-05-10T06:20:26;15;14;
69123;PMS5003;56232;53.384;-2.732;2023-05-10T06:22:51;14;14;
69123;PMS5003;56232;53.384;-2.732;2023-05-10T06:25:17;11;11;
69123;PMS5003;56232;53.384;-2.732;2023-05-10T06:27:42;11;11;
69123;PMS5003;56232;53.384;-2.732;2023-05-10T06:30:08;7;6;
69123;PMS5003;56232;53.384;-2.732;2023-05-10T06:32:33;6;6;
69123;PMS5003;56232;53.384;-2.732;2023-05-10T06:34:59;8;8;
69123;PMS5003;56232;53.384;-2.732;2023-05-10T06:37:24;7;7;
69123;PMS5003;56232;53.384;-2.732;2023-05-10T06:39:49;8;7;
69123;PMS5003;56232;53.384;-2.732;2023-05-10T06:42:15;8;6;
69123;PMS5003;56232;53.384;-2.732;2023-05-10T06:44:41;7;6;
69123;PMS5003;56232;53.384;-2.732;2023-05-10T06:47:06;5;5;
69123;PMS5003;56232;53.384;-2.732;2023-05-10T06:49:32;6;5;
69123;PMS5003;56232;53.384;-2.732;2023-05-10T06:51:57;7;7;
69123;PMS5003;56232;53.384;-2.732;2023-05-10T06:54:23;11;10;
69123;PMS5003;56232;53.384;-2.732;2023-05-10T06:56:49;8;8;
69123;PMS5003;56232;53.384;-2.732;2023-05-10T06:59:14;7;7;
69123;PMS5003;56232;53.384;-2.732;2023-05-10T07:01:40;7;5;
69123;PMS5003;56232;53.384;-2.732;2023-05-10T07:04:06;6;5;
69123;PMS5003;56232;53.384;-2.732;2023-05-10T07:06:31;6;6;
69123;PMS5003;56232;53.384;-2.732;2023-05-10T07:08:57;7;7;
69123;PMS5003;56232;53.384;-2.732;2023-05-10T07:11:22;6;6;
69123;PMS5003;56232;53.384;-2.732;2023-05-10T07:13:48;4;4;
69123;PMS5003;56232;53.384;-2.732;2023-05-10T07:16:14;5;4;
69123;PMS5003;56232;53.384;-2.732;2023-05-10T07:18:39;5;5;
69123;PMS5003;56232;53.384;-2.732;2023-05-10T07:21:10;4;4;
69123;PMS5003;56232;53.384;-2.732;2023-05-10T07:23:30;4;4;
69123;PMS5003;56232;53.384;-2.732;2023-05-10T07:25:56;2;2;
69123;PMS5003;56232;53.384;-2.732;2023-05-10T07:28:21;4;4;
69123;PMS5003;56232;53.384;-2.732;2023-05-10T07:30:47;6;4;
69123;PMS5003;56232;53.384;-2.732;2023-05-10T07:33:13;5;4;
69123;PMS5003;56232;53.384;-2.732;2023-05-10T07:35:38;6;6;
69123;PMS5003;56232;53.384;-2.732;2023-05-10T07:38:04;6;6;
69123;PMS5003;56232;53.384;-2.732;2023-05-10T07:40:29;6;5;
69123;PMS5003;56232;53.384;-2.732;2023-05-10T07:42:55;4;4;
69123;PMS5003;56232;53.384;-2.732;2023-05-10T07:45:20;5;5;
69123;PMS5003;56232;53.384;-2.732;2023-05-10T07:47:46;4;3;
69123;PMS5003;56232;53.384;-2.732;2023-05-10T07:50:11;5;5;
69123;PMS5003;56232;53.384;-2.732;2023-05-10T07:52:37;5;5;
69123;PMS5003;56232;53.384;-2.732;2023-05-10T07:55:02;3;3;
69123;PMS5003;56232;53.384;-2.732;2023-05-10T07:57:28;3;3;
69123;PMS5003;56232;53.384;-2.732;2023-05-10T07:59:54;3;3;
69123;PMS5003;56232;53.384;-2.732;2023-05-10T08:02:19;3;3;
69123;PMS5003;56232;53.384;-2.732;2023-05-10T08:04:45;4;4;
69123;PMS5003;56232;53.384;-2.732;2023-05-10T08:07:10;4;3;
69123;PMS5003;56232;53.384;-2.732;2023-05-10T08:09:36;8;5;
69123;PMS5003;56232;53.384;-2.732;2023-05-10T08:12:01;3;3;
69123;PMS5003;56232;53.384;-2.732;2023-05-10T08:14:27;3;3;
69123;PMS5003;56232;53.384;-2.732;2023-05-10T08:16:53;4;4;
69123;PMS5003;56232;53.384;-2.732;2023-05-10T08:19:18;5;4;
69123;PMS5003;56232;53.384;-2.732;2023-05-10T08:21:44;5;4;
69123;PMS5003;56232;53.384;-2.732;2023-05-10T08:24:09;4;4;
69123;PMS5003;56232;53.384;-2.732;2023-05-10T08:26:35;4;3;
69123;PMS5003;56232;53.384;-2.732;2023-05-10T08:29:00;3;3;
69123;PMS5003;56232;53.384;-2.732;2023-05-10T08:31:26;4;4;
69123;PMS5003;56232;53.384;-2.732;2023-05-10T08:33:51;3;3;
69123;PMS5003;56232;53.384;-2.732;2023-05-10T08:36:18;3;3;
69123;PMS5003;56232;53.384;-2.732;2023-05-10T08:38:42;5;5;
69123;PMS5003;56232;53.384;-2.732;2023-05-10T08:41:08;4;4;
69123;PMS5003;56232;53.384;-2.732;2023-05-10T08:43:34;5;4;
69123;PMS5003;56232;53.384;-2.732;2023-05-10T08:46:00;4;4;
69123;PMS5003;56232;53.384;-2.732;2023-05-10T08:48:24;3;3;
69123;PMS5003;56232;53.384;-2.732;2023-05-10T08:50:51;5;5;
69123;PMS5003;56232;53.384;-2.732;2023-05-10T08:53:16;4;3;
69123;PMS5003;56232;53.384;-2.732;2023-05-10T08:55:41;1;1;
69123;PMS5003;56232;53.384;-2.732;2023-05-10T08:58:07;4;2;
69123;PMS5003;56232;53.384;-2.732;2023-05-10T09:00:32;2;2;
69123;PMS5003;56232;53.384;-2.732;2023-05-10T09:02:58;1;1;
69123;PMS5003;56232;53.384;-2.732;2023-05-10T09:05:23;2;2;
69123;PMS5003;56232;53.384;-2.732;2023-05-10T09:07:49;1;1;
69123;PMS5003;56232;53.384;-2.732;2023-05-10T09:10:14;1;1;
69123;PMS5003;56232;53.384;-2.732;2023-05-10T09:12:40;2;2;
69123;PMS5003;56232;53.384;-2.732;2023-05-10T09:15:06;2;2;
69123;PMS5003;56232;53.384;-2.732;2023-05-10T09:17:31;2;2;
69123;PMS5003;56232;53.384;-2.732;2023-05-10T09:19:57;3;3;
69123;PMS5003;56232;53.384;-2.732;2023-05-10T09:22:22;2;2;
69123;PMS5003;56232;53.384;-2.732;2023-05-10T09:24:48;3;3;
69123;PMS5003;56232;53.384;-2.732;2023-05-10T09:27:14;2;1;
69123;PMS5003;56232;53.384;-2.732;2023-05-10T09:29:39;2;2;
69123;PMS5003;56232;53.384;-2.732;2023-05-10T09:32:04;1;1;
69123;PMS5003;56232;53.384;-2.732;2023-05-10T09:34:31;0;0;
69123;PMS5003;56232;53.384;-2.732;2023-05-10T09:36:57;2;1;
69123;PMS5003;56232;53.384;-2.732;2023-05-10T09:39:21;2;1;
69123;PMS5003;56232;53.384;-2.732;2023-05-10T09:41:46;2;1;
69123;PMS5003;56232;53.384;-2.732;2023-05-10T09:44:14;1;1;
69123;PMS5003;56232;53.384;-2.732;2023-05-10T09:46:37;2;2;
69123;PMS5003;56232;53.384;-2.732;2023-05-10T09:49:03;1;0;
69123;PMS5003;56232;53.384;-2.732;2023-05-10T09:51:29;2;1;
69123;PMS5003;56232;53.384;-2.732;2023-05-10T09:58:45;2;1;
69123;PMS5003;56232;53.384;-2.732;2023-05-10T10:01:11;1;1;
69123;PMS5003;56232;53.384;-2.732;2023-05-10T10:03:40;1;1;
69123;PMS5003;56232;53.384;-2.732;2023-05-10T10:06:02;1;1;
69123;PMS5003;56232;53.384;-2.732;2023-05-10T10:08:27;1;1;
69123;PMS5003;56232;53.384;-2.732;2023-05-10T10:10:53;1;0;
69123;PMS5003;56232;53.384;-2.732;2023-05-10T10:13:19;0;0;
69123;PMS5003;56232;53.384;-2.732;2023-05-10T10:15:44;2;2;
69123;PMS5003;56232;53.384;-2.732;2023-05-10T10:18:12;0;0;
69123;PMS5003;56232;53.384;-2.732;2023-05-10T10:20:36;2;2;
69123;PMS5003;56232;53.384;-2.732;2023-05-10T10:23:01;0;0;
69123;PMS5003;56232;53.384;-2.732;2023-05-10T10:25:27;2;2;
69123;PMS5003;56232;53.384;-2.732;2023-05-10T10:27:59;3;2;
69123;PMS5003;56232;53.384;-2.732;2023-05-10T10:30:21;1;1;
69123;PMS5003;56232;53.384;-2.732;2023-05-10T10:32:49;1;1;
69123;PMS5003;56232;53.384;-2.732;2023-05-10T10:35:09;2;2;
69123;PMS5003;56232;53.384;-2.732;2023-05-10T10:40:00;2;2;
69123;PMS5003;56232;53.384;-2.732;2023-05-10T10:44:54;2;2;
69123;PMS5003;56232;53.384;-2.732;2023-05-10T10:47:21;1;1;
69123;PMS5003;56232;53.384;-2.732;2023-05-10T10:49:43;0;0;
69123;PMS5003;56232;53.384;-2.732;2023-05-10T10:54:34;1;0;
69123;PMS5003;56232;53.384;-2.732;2023-05-10T10:59:26;2;1;
69123;PMS5003;56232;53.384;-2.732;2023-05-10T11:01:51;1;1;
69123;PMS5003;56232;53.384;-2.732;2023-05-10T11:04:17;2;1;
69123;PMS5003;56232;53.384;-2.732;2023-05-10T11:06:42;2;2;
69123;PMS5003;56232;53.384;-2.732;2023-05-10T11:09:08;2;2;
69123;PMS5003;56232;53.384;-2.732;2023-05-10T11:11:34;2;1;
69123;PMS5003;56232;53.384;-2.732;2023-05-10T11:14:02;3;2;
69123;PMS5003;56232;53.384;-2.732;2023-05-10T11:16:24;2;2;
69123;PMS5003;56232;53.384;-2.732;2023-05-10T11:18:54;2;2;
69123;PMS5003;56232;53.384;-2.732;2023-05-10T11:21:15;1;1;
69123;PMS5003;56232;53.384;-2.732;2023-05-10T11:26:07;2;2;
69123;PMS5003;56232;53.384;-2.732;2023-05-10T11:28:32;3;3;
69123;PMS5003;56232;53.384;-2.732;2023-05-10T11:30:58;4;2;
69123;PMS5003;56232;53.384;-2.732;2023-05-10T11:33:23;2;2;
69123;PMS5003;56232;53.384;-2.732;2023-05-10T11:35:49;3;2;
69123;PMS5003;56232;53.384;-2.732;2023-05-10T11:38:14;1;1;
69123;PMS5003;56232;53.384;-2.732;2023-05-10T11:40:40;2;1;
69123;PMS5003;56232;53.384;-2.732;2023-05-10T11:43:06;3;2;
69123;PMS5003;56232;53.384;-2.732;2023-05-10T11:45:32;1;1;
69123;PMS5003;56232;53.384;-2.732;2023-05-10T11:47:57;0;0;
69123;PMS5003;56232;53.384;-2.732;2023-05-10T11:50:22;2;1;
69123;PMS5003;56232;53.384;-2.732;2023-05-10T11:52:50;1;0;
69123;PMS5003;56232;53.384;-2.732;2023-05-10T11:55:15;2;1;
69123;PMS5003;56232;53.384;-2.732;2023-05-10T11:57:39;2;2;
69123;PMS5003;56232;53.384;-2.732;2023-05-10T12:00:05;3;2;
69123;PMS5003;56232;53.384;-2.732;2023-05-10T12:02:30;2;2;
69123;PMS5003;56232;53.384;-2.732;2023-05-10T12:04:56;2;1;
69123;PMS5003;56232;53.384;-2.732;2023-05-10T12:07:21;0;0;
69123;PMS5003;56232;53.384;-2.732;2023-05-10T12:12:15;1;1;
69123;PMS5003;56232;53.384;-2.732;2023-05-10T12:14:38;1;1;
69123;PMS5003;56232;53.384;-2.732;2023-05-10T12:17:03;1;0;
69123;PMS5003;56232;53.384;-2.732;2023-05-10T12:21:55;2;1;
69123;PMS5003;56232;53.384;-2.732;2023-05-10T12:24:20;1;1;
69123;PMS5003;56232;53.384;-2.732;2023-05-10T12:26:46;1;1;
69123;PMS5003;56232;53.384;-2.732;2023-05-10T12:29:12;1;1;
69123;PMS5003;56232;53.384;-2.732;2023-05-10T12:34:03;1;1;
69123;PMS5003;56232;53.384;-2.732;2023-05-10T12:36:28;1;1;
69123;PMS5003;56232;53.384;-2.732;2023-05-10T12:38:59;1;1;
69123;PMS5003;56232;53.384;-2.732;2023-05-10T12:41:19;1;1;
69123;PMS5003;56232;53.384;-2.732;2023-05-10T12:43:45;2;1;
69123;PMS5003;56232;53.384;-2.732;2023-05-10T12:46:11;1;1;
69123;PMS5003;56232;53.384;-2.732;2023-05-10T12:48:36;1;1;
69123;PMS5003;56232;53.384;-2.732;2023-05-10T12:51:02;1;0;
69123;PMS5003;56232;53.384;-2.732;2023-05-10T12:53:27;2;2;
69123;PMS5003;56232;53.384;-2.732;2023-05-10T12:55:53;2;2;
69123;PMS5003;56232;53.384;-2.732;2023-05-10T12:58:19;2;2;
69123;PMS5003;56232;53.384;-2.732;2023-05-10T13:00:44;2;2;
69123;PMS5003;56232;53.384;-2.732;2023-05-10T13:03:09;2;1;
69123;PMS5003;56232;53.384;-2.732;2023-05-10T13:05:35;3;2;
69123;PMS5003;56232;53.384;-2.732;2023-05-10T13:08:00;2;2;
69123;PMS5003;56232;53.384;-2.732;2023-05-10T13:10:26;2;2;
69123;PMS5003;56232;53.384;-2.732;2023-05-10T13:12:52;0;0;
69123;PMS5003;56232;53.384;-2.732;2023-05-10T13:15:17;1;1;
69123;PMS5003;56232;53.384;-2.732;2023-05-10T13:17:43;1;1;
69123;PMS5003;56232;53.384;-2.732;2023-05-10T13:20:09;2;1;
69123;PMS5003;56232;53.384;-2.732;2023-05-10T13:22:34;1;1;
69123;PMS5003;56232;53.384;-2.732;2023-05-10T13:24:59;0;0;
69123;PMS5003;56232;53.384;-2.732;2023-05-10T13:27:25;1;0;
69123;PMS5003;56232;53.384;-2.732;2023-05-10T13:29:50;2;2;
69123;PMS5003;56232;53.384;-2.732;2023-05-10T13:32:16;1;1;
69123;PMS5003;56232;53.384;-2.732;2023-05-10T13:34:42;1;1;
69123;PMS5003;56232;53.384;-2.732;2023-05-10T13:37:07;1;1;
69123;PMS5003;56232;53.384;-2.732;2023-05-10T13:39:33;3;2;
69123;PMS5003;56232;53.384;-2.732;2023-05-10T13:41:58;1;1;
69123;PMS5003;56232;53.384;-2.732;2023-05-10T13:44:24;2;1;
69123;PMS5003;56232;53.384;-2.732;2023-05-10T13:46:50;2;2;
69123;PMS5003;56232;53.384;-2.732;2023-05-10T13:49:15;1;1;
69123;PMS5003;56232;53.384;-2.732;2023-05-10T13:51:43;0;0;
69123;PMS5003;56232;53.384;-2.732;2023-05-10T13:54:06;3;2;
69123;PMS5003;56232;53.384;-2.732;2023-05-10T13:56:32;3;3;
69123;PMS5003;56232;53.384;-2.732;2023-05-10T13:58:58;3;3;
69123;PMS5003;56232;53.384;-2.732;2023-05-10T14:01:23;1;1;
69123;PMS5003;56232;53.384;-2.732;2023-05-10T14:03:49;1;1;
69123;PMS5003;56232;53.384;-2.732;2023-05-10T14:06:14;2;2;
69123;PMS5003;56232;53.384;-2.732;2023-05-10T14:08:40;2;2;
69123;PMS5003;56232;53.384;-2.732;2023-05-10T14:11:05;3;2;
69123;PMS5003;56232;53.384;-2.732;2023-05-10T14:13:31;1;1;
69123;PMS5003;56232;53.384;-2.732;2023-05-10T14:15:56;1;1;
69123;PMS5003;56232;53.384;-2.732;2023-05-10T14:18:22;1;1;
69123;PMS5003;56232;53.384;-2.732;2023-05-10T14:20:48;1;1;
69123;PMS5003;56232;53.384;-2.732;2023-05-10T14:23:13;1;1;
69123;PMS5003;56232;53.384;-2.732;2023-05-10T14:25:39;1;1;
69123;PMS5003;56232;53.384;-2.732;2023-05-10T14:28:04;3;2;
69123;PMS5003;56232;53.384;-2.732;2023-05-10T14:30:30;2;2;
69123;PMS5003;56232;53.384;-2.732;2023-05-10T14:32:56;2;1;
69123;PMS5003;56232;53.384;-2.732;2023-05-10T14:35:21;0;0;
69123;PMS5003;56232;53.384;-2.732;2023-05-10T14:37:47;2;2;
69123;PMS5003;56232;53.384;-2.732;2023-05-10T14:40:12;1;1;
69123;PMS5003;56232;53.384;-2.732;2023-05-10T14:42:38;1;1;
69123;PMS5003;56232;53.384;-2.732;2023-05-10T14:45:04;1;1;
69123;PMS5003;56232;53.384;-2.732;2023-05-10T14:47:29;2;2;
69123;PMS5003;56232;53.384;-2.732;2023-05-10T14:49:55;3;2;
69123;PMS5003;56232;53.384;-2.732;2023-05-10T14:52:20;3;3;
69123;PMS5003;56232;53.384;-2.732;2023-05-10T14:54:46;3;3;
69123;PMS5003;56232;53.384;-2.732;2023-05-10T14:57:11;2;2;
69123;PMS5003;56232;53.384;-2.732;2023-05-10T14:59:37;1;1;
69123;PMS5003;56232;53.384;-2.732;2023-05-10T15:02:03;0;0;
69123;PMS5003;56232;53.384;-2.732;2023-05-10T15:04:28;3;3;
69123;PMS5003;56232;53.384;-2.732;2023-05-10T15:06:54;1;1;
69123;PMS5003;56232;53.384;-2.732;2023-05-10T15:09:20;2;2;
69123;PMS5003;56232;53.384;-2.732;2023-05-10T15:11:45;1;0;
69123;PMS5003;56232;53.384;-2.732;2023-05-10T15:14:10;2;2;
69123;PMS5003;56232;53.384;-2.732;2023-05-10T15:16:36;1;1;
69123;PMS5003;56232;53.384;-2.732;2023-05-10T15:19:02;2;2;
69123;PMS5003;56232;53.384;-2.732;2023-05-10T15:21:27;1;1;
69123;PMS5003;56232;53.384;-2.732;2023-05-10T15:23:53;2;2;
69123;PMS5003;56232;53.384;-2.732;2023-05-10T15:26:19;0;0;
69123;PMS5003;56232;53.384;-2.732;2023-05-10T15:28:44;1;1;
69123;PMS5003;56232;53.384;-2.732;2023-05-10T15:31:09;1;1;
69123;PMS5003;56232;53.384;-2.732;2023-05-10T15:33:36;0;0;
69123;PMS5003;56232;53.384;-2.732;2023-05-10T15:36:01;1;1;
69123;PMS5003;56232;53.384;-2.732;2023-05-10T15:38:26;1;1;
69123;PMS5003;56232;53.384;-2.732;2023-05-10T15:40:52;1;1;
69123;PMS5003;56232;53.384;-2.732;2023-05-10T15:43:18;1;1;
69123;PMS5003;56232;53.384;-2.732;2023-05-10T15:45:43;1;1;
69123;PMS5003;56232;53.384;-2.732;2023-05-10T15:48:09;2;2;
69123;PMS5003;56232;53.384;-2.732;2023-05-10T15:50:34;1;1;
69123;PMS5003;56232;53.384;-2.732;2023-05-10T15:53:00;1;0;
69123;PMS5003;56232;53.384;-2.732;2023-05-10T15:55:25;1;1;
69123;PMS5003;56232;53.384;-2.732;2023-05-10T15:57:51;1;1;
69123;PMS5003;56232;53.384;-2.732;2023-05-10T16:00:16;0;0;
69123;PMS5003;56232;53.384;-2.732;2023-05-10T16:02:42;0;0;
69123;PMS5003;56232;53.384;-2.732;2023-05-10T16:05:08;0;0;
69123;PMS5003;56232;53.384;-2.732;2023-05-10T16:07:33;0;0;
69123;PMS5003;56232;53.384;-2.732;2023-05-10T16:09:59;0;0;
69123;PMS5003;56232;53.384;-2.732;2023-05-10T16:12:24;0;0;
69123;PMS5003;56232;53.384;-2.732;2023-05-10T16:14:50;1;1;
69123;PMS5003;56232;53.384;-2.732;2023-05-10T16:17:15;1;1;
69123;PMS5003;56232;53.384;-2.732;2023-05-10T16:19:41;2;2;
69123;PMS5003;56232;53.384;-2.732;2023-05-10T16:22:06;3;3;
69123;PMS5003;56232;53.384;-2.732;2023-05-10T16:24:32;3;3;
69123;PMS5003;56232;53.384;-2.732;2023-05-10T16:26:58;2;2;
69123;PMS5003;56232;53.384;-2.732;2023-05-10T16:29:23;3;3;
69123;PMS5003;56232;53.384;-2.732;2023-05-10T16:31:49;3;3;
69123;PMS5003;56232;53.384;-2.732;2023-05-10T16:34:14;2;2;
69123;PMS5003;56232;53.384;-2.732;2023-05-10T16:36:40;2;2;
69123;PMS5003;56232;53.384;-2.732;2023-05-10T16:39:06;2;2;
69123;PMS5003;56232;53.384;-2.732;2023-05-10T16:41:32;2;2;
69123;PMS5003;56232;53.384;-2.732;2023-05-10T16:43:57;2;2;